sensor_id;sensor_type;location;lat;lon;timestamp;pressure;altitude;pressure_sealevel;temperature;humidity
13235;BME280;6683;48.506;9.050;2022-08-06T00:02:26;98570.84;;;22.79;56.93
13235;BME280;6683;48.506;9.050;2022-08-06T00:05:31;98577.53;;;22.77;56.44
13235;BME280;6683;48.506;9.050;2022-08-06T00:08:34;98578.84;;;22.74;55.98
13235;BME280;6683;48.506;9.050;2022-08-06T00:11:37;98574.22;;;22.70;56.13
13235;BME280;6683;48.506;9.050;2022-08-06T00:14:41;98577.94;;;22.64;55.72
13235;BME280;6683;48.506;9.050;2022-08-06T00:17:44;98574.94;;;22.60;55.16
13235;BME280;6683;48.506;9.050;2022-08-06T00:20:46;98570.84;;;22.58;55.28
13235;BME280;6683;48.506;9.050;2022-08-06T00:23:49;98575.94;;;22.54;55.60
13235;BME280;6683;48.506;9.050;2022-08-06T00:26:51;98571.88;;;22.52;55.46
13235;BME280;6683;48.506;9.050;2022-08-06T00:29:56;98572.94;;;22.51;54.65
13235;BME280;6683;48.506;9.050;2022-08-06T00:32:58;98569.44;;;22.50;54.40
13235;BME280;6683;48.506;9.050;2022-08-06T00:36:01;98577.19;;;22.47;54.38
13235;BME280;6683;48.506;9.050;2022-08-06T00:39:06;98583.94;;;22.49;54.21
13235;BME280;6683;48.506;9.050;2022-08-06T00:42:08;98579.09;;;22.46;53.47
13235;BME280;6683;48.506;9.050;2022-08-06T00:45:13;98580.69;;;22.47;53.20
13235;BME280;6683;48.506;9.050;2022-08-06T00:48:15;98583.94;;;22.49;53.62
13235;BME280;6683;48.506;9.050;2022-08-06T00:51:18;98580.69;;;22.47;53.82
13235;BME280;6683;48.506;9.050;2022-08-06T00:54:21;98588.22;;;22.45;53.68
13235;BME280;6683;48.506;9.050;2022-08-06T00:57:24;98586.03;;;22.42;53.65
13235;BME280;6683;48.506;9.050;2022-08-06T01:00:27;98586.84;;;22.43;53.50
13235;BME280;6683;48.506;9.050;2022-08-06T01:03:30;98588.72;;;22.42;53.43
13235;BME280;6683;48.506;9.050;2022-08-06T01:06:32;98597.38;;;22.44;53.11
13235;BME280;6683;48.506;9.050;2022-08-06T01:09:35;98605.16;;;22.46;53.45
13235;BME280;6683;48.506;9.050;2022-08-06T01:12:37;98601.91;;;22.44;53.11
13235;BME280;6683;48.506;9.050;2022-08-06T01:15:44;98601.09;;;22.43;52.72
13235;BME280;6683;48.506;9.050;2022-08-06T01:18:59;98600.28;;;22.43;52.51
13235;BME280;6683;48.506;9.050;2022-08-06T01:22:17;98597.84;;;22.41;52.32
13235;BME280;6683;48.506;9.050;2022-08-06T01:25:45;98596.25;;;22.40;52.50
13235;BME280;6683;48.506;9.050;2022-08-06T01:28:54;98589.22;;;22.39;52.43
13235;BME280;6683;48.506;9.050;2022-08-06T01:32:04;98584.94;;;22.38;52.32
13235;BME280;6683;48.506;9.050;2022-08-06T01:35:14;98589.22;;;22.39;52.38
13235;BME280;6683;48.506;9.050;2022-08-06T01:38:25;98586.03;;;22.42;52.07
13235;BME280;6683;48.506;9.050;2022-08-06T01:41:34;98591.16;;;22.44;51.63
13235;BME280;6683;48.506;9.050;2022-08-06T01:44:48;98600.06;;;22.44;51.79
13235;BME280;6683;48.506;9.050;2022-08-06T01:47:54;98597.38;;;22.44;51.57
13235;BME280;6683;48.506;9.050;2022-08-06T01:51:01;98593.84;;;22.44;51.37
13235;BME280;6683;48.506;9.050;2022-08-06T01:54:07;98595.47;;;22.45;51.40
13235;BME280;6683;48.506;9.050;2022-08-06T01:57:12;98597.91;;;22.46;50.81
13235;BME280;6683;48.506;9.050;2022-08-06T02:00:19;98606.56;;;22.48;51.37
13235;BME280;6683;48.506;9.050;2022-08-06T02:03:28;98607.59;;;22.47;51.38
13235;BME280;6683;48.506;9.050;2022-08-06T02:06:34;98608.97;;;22.50;51.05
13235;BME280;6683;48.506;9.050;2022-08-06T02:09:38;98603.34;;;22.51;50.73
13235;BME280;6683;48.506;9.050;2022-08-06T02:12:43;98614.09;;;22.51;51.25
13235;BME280;6683;48.506;9.050;2022-08-06T02:15:49;98611.66;;;22.50;51.04
13235;BME280;6683;48.506;9.050;2022-08-06T02:18:51;98614.84;;;22.47;51.25
13235;BME280;6683;48.506;9.050;2022-08-06T02:21:56;98612.69;;;22.44;50.42
13235;BME280;6683;48.506;9.050;2022-08-06T02:25:04;98610.25;;;22.42;50.62
13235;BME280;6683;48.506;9.050;2022-08-06T02:28:11;98616.19;;;22.44;50.39
13235;BME280;6683;48.506;9.050;2022-08-06T02:31:16;98615.13;;;22.45;50.45
13235;BME280;6683;48.506;9.050;2022-08-06T02:34:19;98618.38;;;22.47;50.25
13235;BME280;6683;48.506;9.050;2022-08-06T02:37:26;98627.25;;;22.48;50.40
13235;BME280;6683;48.506;9.050;2022-08-06T02:40:37;98625.38;;;22.48;49.98
13235;BME280;6683;48.506;9.050;2022-08-06T02:43:49;98625.38;;;22.48;49.59
13235;BME280;6683;48.506;9.050;2022-08-06T02:47:02;98626.44;;;22.47;50.02
13235;BME280;6683;48.506;9.050;2022-08-06T02:50:07;98628.06;;;22.48;49.43
13235;BME280;6683;48.506;9.050;2022-08-06T02:53:15;98629.94;;;22.48;49.35
13235;BME280;6683;48.506;9.050;2022-08-06T02:56:18;98624.31;;;22.49;48.85
13235;BME280;6683;48.506;9.050;2022-08-06T02:59:26;98616.00;;;22.51;49.14
13235;BME280;6683;48.506;9.050;2022-08-06T03:02:31;98615.75;;;22.52;49.13
13235;BME280;6683;48.506;9.050;2022-08-06T03:05:35;98615.47;;;22.54;49.26
13235;BME280;6683;48.506;9.050;2022-08-06T03:08:38;98618.16;;;22.54;48.80
13235;BME280;6683;48.506;9.050;2022-08-06T03:11:41;98621.13;;;22.52;48.29
13235;BME280;6683;48.506;9.050;2022-08-06T03:14:44;98621.13;;;22.52;48.49
13235;BME280;6683;48.506;9.050;2022-08-06T03:17:50;98629.19;;;22.52;48.51
13235;BME280;6683;48.506;9.050;2022-08-06T03:20:58;98630.81;;;22.53;47.90
13235;BME280;6683;48.506;9.050;2022-08-06T03:24:04;98628.38;;;22.52;47.83
13235;BME280;6683;48.506;9.050;2022-08-06T03:27:08;98637.53;;;22.51;47.97
13235;BME280;6683;48.506;9.050;2022-08-06T03:30:14;98631.31;;;22.50;47.67
13235;BME280;6683;48.506;9.050;2022-08-06T03:33:18;98636.16;;;22.48;47.26
13235;BME280;6683;48.506;9.050;2022-08-06T03:36:22;98629.94;;;22.48;47.38
13235;BME280;6683;48.506;9.050;2022-08-06T03:39:26;98636.16;;;22.48;47.34
13235;BME280;6683;48.506;9.050;2022-08-06T03:42:29;98635.31;;;22.48;47.23
13235;BME280;6683;48.506;9.050;2022-08-06T03:45:38;98642.00;;;22.45;47.28
13235;BME280;6683;48.506;9.050;2022-08-06T03:48:44;98640.41;;;22.44;46.99
13235;BME280;6683;48.506;9.050;2022-08-06T03:51:47;98644.97;;;22.44;46.68
13235;BME280;6683;48.506;9.050;2022-08-06T03:54:55;98650.59;;;22.42;46.86
13235;BME280;6683;48.506;9.050;2022-08-06T03:58:04;98653.28;;;22.42;46.29
13235;BME280;6683;48.506;9.050;2022-08-06T04:01:12;98643.03;;;22.39;46.50
13235;BME280;6683;48.506;9.050;2022-08-06T04:04:18;98656.22;;;22.41;46.28
13235;BME280;6683;48.506;9.050;2022-08-06T04:07:21;98649.47;;;22.38;46.73
13235;BME280;6683;48.506;9.050;2022-08-06T04:10:26;98649.47;;;22.38;46.53
13235;BME280;6683;48.506;9.050;2022-08-06T04:13:29;98655.91;;;22.37;46.58
13235;BME280;6683;48.506;9.050;2022-08-06T04:16:32;98657.78;;;22.37;46.43
13235;BME280;6683;48.506;9.050;2022-08-06T04:19:37;98663.41;;;22.35;46.43
13235;BME280;6683;48.506;9.050;2022-08-06T04:22:40;98660.16;;;22.33;46.25
13235;BME280;6683;48.506;9.050;2022-08-06T04:25:47;98663.91;;;22.32;46.10
13235;BME280;6683;48.506;9.050;2022-08-06T04:28:53;98661.47;;;22.31;46.33
13235;BME280;6683;48.506;9.050;2022-08-06T04:31:59;98664.16;;;22.31;46.31
13235;BME280;6683;48.506;9.050;2022-08-06T04:35:06;98676.00;;;22.30;46.11
13235;BME280;6683;48.506;9.050;2022-08-06T04:38:10;98683.25;;;22.29;46.49
13235;BME280;6683;48.506;9.050;2022-08-06T04:41:14;98691.59;;;22.27;46.26
13235;BME280;6683;48.506;9.050;2022-08-06T04:44:17;98693.44;;;22.27;46.40
13235;BME280;6683;48.506;9.050;2022-08-06T04:47:20;98693.44;;;22.27;46.09
13235;BME280;6683;48.506;9.050;2022-08-06T04:50:24;98697.19;;;22.26;46.21
13235;BME280;6683;48.506;9.050;2022-08-06T04:53:27;98702.56;;;22.26;46.03
13235;BME280;6683;48.506;9.050;2022-08-06T04:56:29;98703.13;;;22.28;46.12
13235;BME280;6683;48.506;9.050;2022-08-06T04:59:32;98703.94;;;22.28;46.02
13235;BME280;6683;48.506;9.050;2022-08-06T05:02:34;98701.78;;;22.25;46.19
13235;BME280;6683;48.506;9.050;2022-08-06T05:05:46;98710.88;;;22.24;46.11
13235;BME280;6683;48.506;9.050;2022-08-06T05:08:54;98716.53;;;22.23;46.17
13235;BME280;6683;48.506;9.050;2022-08-06T05:12:04;98712.75;;;22.24;46.14
13235;BME280;6683;48.506;9.050;2022-08-06T05:15:11;98711.44;;;22.26;45.86
13235;BME280;6683;48.506;9.050;2022-08-06T05:18:21;98721.16;;;22.27;45.99
13235;BME280;6683;48.506;9.050;2022-08-06T05:21:31;98720.66;;;22.31;46.11
13235;BME280;6683;48.506;9.050;2022-08-06T05:24:35;98715.59;;;22.34;45.99
13235;BME280;6683;48.506;9.050;2022-08-06T05:27:40;98726.94;;;22.36;45.99
13235;BME280;6683;48.506;9.050;2022-08-06T05:30:44;98728.53;;;22.37;45.88
13235;BME280;6683;48.506;9.050;2022-08-06T05:33:47;98725.38;;;22.40;45.86
13235;BME280;6683;48.506;9.050;2022-08-06T05:36:51;98729.19;;;22.44;45.78
13235;BME280;6683;48.506;9.050;2022-08-06T05:39:54;98731.34;;;22.47;45.61
13235;BME280;6683;48.506;9.050;2022-08-06T05:42:56;98728.44;;;22.49;46.03
13235;BME280;6683;48.506;9.050;2022-08-06T05:46:01;98738.38;;;22.48;45.96
13235;BME280;6683;48.506;9.050;2022-08-06T05:49:09;98740.00;;;22.49;45.71
13235;BME280;6683;48.506;9.050;2022-08-06T05:52:19;98743.50;;;22.50;45.65
13235;BME280;6683;48.506;9.050;2022-08-06T05:55:29;98741.91;;;22.49;45.76
13235;BME280;6683;48.506;9.050;2022-08-06T05:58:38;98743.44;;;22.45;45.69
13235;BME280;6683;48.506;9.050;2022-08-06T06:01:41;98748.81;;;22.45;45.69
13235;BME280;6683;48.506;9.050;2022-08-06T06:04:44;98760.13;;;22.47;45.88
13235;BME280;6683;48.506;9.050;2022-08-06T06:07:49;98759.91;;;22.48;45.93
13235;BME280;6683;48.506;9.050;2022-08-06T06:10:53;98759.41;;;22.51;45.69
13235;BME280;6683;48.506;9.050;2022-08-06T06:13:56;98763.72;;;22.52;45.69
13235;BME280;6683;48.506;9.050;2022-08-06T06:17:12;98770.72;;;22.53;45.80
13235;BME280;6683;48.506;9.050;2022-08-06T06:20:35;98769.75;;;22.59;45.76
13235;BME280;6683;48.506;9.050;2022-08-06T06:23:49;98770.31;;;22.61;45.52
13235;BME280;6683;48.506;9.050;2022-08-06T06:26:59;98766.09;;;22.65;45.88
13235;BME280;6683;48.506;9.050;2022-08-06T06:30:06;98772.91;;;22.73;45.83
13235;BME280;6683;48.506;9.050;2022-08-06T06:33:28;98778.38;;;22.78;45.67
13235;BME280;6683;48.506;9.050;2022-08-06T06:40:08;98777.34;;;22.84;45.66
13235;BME280;6683;48.506;9.050;2022-08-06T06:43:16;98781.19;;;22.88;45.35
13235;BME280;6683;48.506;9.050;2022-08-06T06:46:26;98772.91;;;22.94;45.37
13235;BME280;6683;48.506;9.050;2022-08-06T06:49:37;98767.56;;;22.99;45.22
13235;BME280;6683;48.506;9.050;2022-08-06T06:52:44;98771.38;;;23.03;45.06
13235;BME280;6683;48.506;9.050;2022-08-06T06:55:54;98776.75;;;23.03;45.17
13235;BME280;6683;48.506;9.050;2022-08-06T06:59:02;98779.47;;;23.03;45.15
13235;BME280;6683;48.506;9.050;2022-08-06T07:02:08;98781.66;;;23.07;45.02
13235;BME280;6683;48.506;9.050;2022-08-06T07:05:17;98784.66;;;23.10;44.94
13235;BME280;6683;48.506;9.050;2022-08-06T07:08:23;98798.97;;;23.16;44.90
13235;BME280;6683;48.506;9.050;2022-08-06T07:11:29;98798.28;;;23.25;44.71
13235;BME280;6683;48.506;9.050;2022-08-06T07:14:35;98797.28;;;23.31;45.11
13235;BME280;6683;48.506;9.050;2022-08-06T07:17:39;98807.88;;;23.38;44.79
13235;BME280;6683;48.506;9.050;2022-08-06T07:20:43;98803.09;;;23.45;44.68
13235;BME280;6683;48.506;9.050;2022-08-06T07:23:48;98801.63;;;23.59;44.56
13235;BME280;6683;48.506;9.050;2022-08-06T07:26:54;98797.72;;;23.71;44.55
13235;BME280;6683;48.506;9.050;2022-08-06T07:29:59;98799.66;;;23.81;44.54
13235;BME280;6683;48.506;9.050;2022-08-06T07:33:02;98803.28;;;23.92;44.11
13235;BME280;6683;48.506;9.050;2022-08-06T07:36:06;98800.19;;;24.05;44.06
13235;BME280;6683;48.506;9.050;2022-08-06T07:39:13;98807.00;;;24.17;44.01
13235;BME280;6683;48.506;9.050;2022-08-06T07:42:19;98805.53;;;24.36;43.92
13235;BME280;6683;48.506;9.050;2022-08-06T07:45:28;98790.00;;;24.58;43.35
13235;BME280;6683;48.506;9.050;2022-08-06T07:48:39;98787.88;;;24.71;43.29
13235;BME280;6683;48.506;9.050;2022-08-06T07:51:43;98795.53;;;24.79;42.91
13235;BME280;6683;48.506;9.050;2022-08-06T07:54:47;98785.81;;;24.83;42.68
13235;BME280;6683;48.506;9.050;2022-08-06T07:57:52;98798.53;;;24.82;42.65
13235;BME280;6683;48.506;9.050;2022-08-06T08:00:55;98807.44;;;24.88;42.59
13235;BME280;6683;48.506;9.050;2022-08-06T08:03:58;98803.41;;;24.95;42.39
13235;BME280;6683;48.506;9.050;2022-08-06T08:07:19;98808.34;;;25.08;42.31
13235;BME280;6683;48.506;9.050;2022-08-06T08:10:22;98810.28;;;25.23;41.92
13235;BME280;6683;48.506;9.050;2022-08-06T08:13:27;98810.84;;;25.30;41.73
13235;BME280;6683;48.506;9.050;2022-08-06T08:16:29;98816.25;;;25.35;41.63
13235;BME280;6683;48.506;9.050;2022-08-06T08:19:33;98813.31;;;25.36;41.20
13235;BME280;6683;48.506;9.050;2022-08-06T08:22:37;98810.59;;;25.36;41.23
13235;BME280;6683;48.506;9.050;2022-08-06T08:25:40;98808.50;;;25.49;41.23
13235;BME280;6683;48.506;9.050;2022-08-06T08:28:45;98809.03;;;25.56;40.98
13235;BME280;6683;48.506;9.050;2022-08-06T08:31:47;98805.53;;;25.65;40.79
13235;BME280;6683;48.506;9.050;2022-08-06T08:34:50;98811.25;;;25.74;40.70
13235;BME280;6683;48.506;9.050;2022-08-06T08:37:53;98813.69;;;25.90;40.75
13235;BME280;6683;48.506;9.050;2022-08-06T08:41:00;98812.84;;;26.00;40.31
13235;BME280;6683;48.506;9.050;2022-08-06T08:44:07;98805.59;;;26.16;40.10
13235;BME280;6683;48.506;9.050;2022-08-06T08:47:13;98808.53;;;26.29;39.96
13235;BME280;6683;48.506;9.050;2022-08-06T08:50:16;98811.75;;;26.46;39.53
13235;BME280;6683;48.506;9.050;2022-08-06T08:53:28;98807.38;;;26.65;39.16
13235;BME280;6683;48.506;9.050;2022-08-06T08:56:32;98801.13;;;26.80;39.22
13235;BME280;6683;48.506;9.050;2022-08-06T08:59:37;98804.38;;;26.77;38.63
13235;BME280;6683;48.506;9.050;2022-08-06T09:02:42;98802.75;;;26.71;38.84
13235;BME280;6683;48.506;9.050;2022-08-06T09:05:45;98810.88;;;26.71;38.60
13235;BME280;6683;48.506;9.050;2022-08-06T09:08:47;98807.91;;;26.67;38.08
13235;BME280;6683;48.506;9.050;2022-08-06T09:11:50;98810.91;;;26.61;38.05
13235;BME280;6683;48.506;9.050;2022-08-06T09:14:54;98814.72;;;26.50;38.02
13235;BME280;6683;48.506;9.050;2022-08-06T09:17:57;98821.25;;;26.39;38.40
13235;BME280;6683;48.506;9.050;2022-08-06T09:21:00;98825.59;;;26.30;38.37
13235;BME280;6683;48.506;9.050;2022-08-06T09:24:04;98821.25;;;26.19;38.10
13235;BME280;6683;48.506;9.050;2022-08-06T09:27:09;98821.00;;;26.15;38.30
13235;BME280;6683;48.506;9.050;2022-08-06T09:30:16;98816.94;;;26.23;38.41
13235;BME280;6683;48.506;9.050;2022-08-06T09:33:19;98823.44;;;26.37;38.21
13235;BME280;6683;48.506;9.050;2022-08-06T09:36:23;98821.50;;;26.42;37.79
13235;BME280;6683;48.506;9.050;2022-08-06T09:39:33;98822.84;;;26.50;38.19
13235;BME280;6683;48.506;9.050;2022-08-06T09:42:42;98817.41;;;26.70;37.66
13235;BME280;6683;48.506;9.050;2022-08-06T09:45:47;98826.56;;;26.89;37.42
13235;BME280;6683;48.506;9.050;2022-08-06T09:49:00;98830.28;;;27.08;37.30
13235;BME280;6683;48.506;9.050;2022-08-06T09:52:14;98828.63;;;27.17;36.66
13235;BME280;6683;48.506;9.050;2022-08-06T09:55:29;98829.69;;;27.21;36.59
13235;BME280;6683;48.506;9.050;2022-08-06T09:58:35;98823.19;;;27.22;36.46
13235;BME280;6683;48.506;9.050;2022-08-06T10:01:44;98823.38;;;27.31;36.62
13235;BME280;6683;48.506;9.050;2022-08-06T10:04:48;98828.28;;;27.39;36.28
13235;BME280;6683;48.506;9.050;2022-08-06T10:08:05;98826.13;;;27.36;36.28
13235;BME280;6683;48.506;9.050;2022-08-06T10:11:08;98822.84;;;27.29;36.09
13235;BME280;6683;48.506;9.050;2022-08-06T10:14:22;98821.03;;;27.19;36.33
13235;BME280;6683;48.506;9.050;2022-08-06T10:17:26;98820.78;;;27.11;36.24
13235;BME280;6683;48.506;9.050;2022-08-06T10:20:29;98827.31;;;27.05;36.44
13235;BME280;6683;48.506;9.050;2022-08-06T10:23:34;98821.66;;;26.96;36.18
13235;BME280;6683;48.506;9.050;2022-08-06T10:26:37;98820.59;;;26.92;36.14
13235;BME280;6683;48.506;9.050;2022-08-06T10:29:44;98827.66;;;26.83;36.00
13235;BME280;6683;48.506;9.050;2022-08-06T10:32:53;98830.66;;;26.76;36.22
13235;BME280;6683;48.506;9.050;2022-08-06T10:36:03;98830.41;;;26.68;36.19
13235;BME280;6683;48.506;9.050;2022-08-06T10:39:07;98830.16;;;26.59;36.30
13235;BME280;6683;48.506;9.050;2022-08-06T10:42:10;98836.13;;;26.51;36.34
13235;BME280;6683;48.506;9.050;2022-08-06T10:45:15;98838.84;;;26.46;36.62
13235;BME280;6683;48.506;9.050;2022-08-06T10:48:19;98832.63;;;26.36;36.78
13235;BME280;6683;48.506;9.050;2022-08-06T10:51:24;98843.97;;;26.33;36.73
13235;BME280;6683;48.506;9.050;2022-08-06T10:54:30;98828.31;;;26.35;36.81
13235;BME280;6683;48.506;9.050;2022-08-06T10:57:33;98828.00;;;26.41;37.02
13235;BME280;6683;48.506;9.050;2022-08-06T11:00:36;98832.59;;;26.51;37.06
13235;BME280;6683;48.506;9.050;2022-08-06T11:04:09;98828.53;;;26.63;36.68
13235;BME280;6683;48.506;9.050;2022-08-06T11:07:54;98827.41;;;26.74;36.36
13235;BME280;6683;48.506;9.050;2022-08-06T11:11:16;98826.03;;;26.87;36.21
13235;BME280;6683;48.506;9.050;2022-08-06T11:14:23;98822.97;;;27.04;35.93
13235;BME280;6683;48.506;9.050;2022-08-06T11:17:40;98818.78;;;27.31;35.24
13235;BME280;6683;48.506;9.050;2022-08-06T11:20:46;98815.94;;;27.61;35.31
13235;BME280;6683;48.506;9.050;2022-08-06T11:24:00;98812.53;;;27.85;35.01
13235;BME280;6683;48.506;9.050;2022-08-06T11:27:03;98813.66;;;28.12;34.43
13235;BME280;6683;48.506;9.050;2022-08-06T11:30:09;98806.72;;;28.59;34.23
13235;BME280;6683;48.506;9.050;2022-08-06T11:33:14;98798.47;;;29.16;33.00
13235;BME280;6683;48.506;9.050;2022-08-06T11:36:27;98786.25;;;29.69;32.41
13235;BME280;6683;48.506;9.050;2022-08-06T11:39:30;98786.25;;;30.20;31.59
13235;BME280;6683;48.506;9.050;2022-08-06T11:42:54;98786.09;;;30.30;31.47
13235;BME280;6683;48.506;9.050;2022-08-06T11:46:23;98778.88;;;30.53;31.56
13235;BME280;6683;48.506;9.050;2022-08-06T11:49:36;98771.38;;;30.58;30.99
13235;BME280;6683;48.506;9.050;2022-08-06T11:52:41;98779.78;;;30.62;30.81
13235;BME280;6683;48.506;9.050;2022-08-06T11:56:04;98779.41;;;30.23;30.81
13235;BME280;6683;48.506;9.050;2022-08-06T11:59:15;98773.09;;;29.95;30.95
13235;BME280;6683;48.506;9.050;2022-08-06T12:02:49;98775.59;;;29.73;31.11
13235;BME280;6683;48.506;9.050;2022-08-06T12:05:53;98768.31;;;29.68;31.18
13235;BME280;6683;48.506;9.050;2022-08-06T12:09:08;98771.97;;;29.96;31.05
13235;BME280;6683;48.506;9.050;2022-08-06T12:12:36;98760.50;;;30.45;30.36
13235;BME280;6683;48.506;9.050;2022-08-06T12:15:41;98755.47;;;30.79;30.37
13235;BME280;6683;48.506;9.050;2022-08-06T12:18:44;98757.75;;;31.13;29.49
13235;BME280;6683;48.506;9.050;2022-08-06T12:21:53;98761.44;;;31.30;28.97
13235;BME280;6683;48.506;9.050;2022-08-06T12:24:57;98749.34;;;31.23;28.66
13235;BME280;6683;48.506;9.050;2022-08-06T12:28:00;98750.91;;;31.02;28.87
13235;BME280;6683;48.506;9.050;2022-08-06T12:31:06;98743.06;;;30.87;29.13
13235;BME280;6683;48.506;9.050;2022-08-06T12:34:23;98745.16;;;30.76;28.94
13235;BME280;6683;48.506;9.050;2022-08-06T12:37:35;98741.81;;;30.65;28.95
13235;BME280;6683;48.506;9.050;2022-08-06T12:40:38;98737.88;;;30.71;29.05
13235;BME280;6683;48.506;9.050;2022-08-06T12:43:43;98736.78;;;30.72;28.90
13235;BME280;6683;48.506;9.050;2022-08-06T12:46:48;98735.75;;;30.82;28.67
13235;BME280;6683;48.506;9.050;2022-08-06T12:49:50;98735.34;;;30.75;28.66
13235;BME280;6683;48.506;9.050;2022-08-06T12:53:06;98730.53;;;30.45;28.81
13235;BME280;6683;48.506;9.050;2022-08-06T12:56:14;98724.94;;;30.23;28.93
13235;BME280;6683;48.506;9.050;2022-08-06T12:59:20;98727.63;;;30.09;28.92
13235;BME280;6683;48.506;9.050;2022-08-06T13:02:26;98719.91;;;30.30;28.70
13235;BME280;6683;48.506;9.050;2022-08-06T13:05:29;98708.59;;;30.77;28.27
13235;BME280;6683;48.506;9.050;2022-08-06T13:08:33;98708.16;;;31.11;27.93
13235;BME280;6683;48.506;9.050;2022-08-06T13:11:36;98702.59;;;31.38;27.91
13235;BME280;6683;48.506;9.050;2022-08-06T13:14:49;98701.59;;;31.70;27.62
13235;BME280;6683;48.506;9.050;2022-08-06T13:18:10;98696.34;;;31.82;27.26
13235;BME280;6683;48.506;9.050;2022-08-06T13:21:19;98683.38;;;31.87;27.22
13235;BME280;6683;48.506;9.050;2022-08-06T13:24:27;98691.44;;;31.92;27.34
13235;BME280;6683;48.506;9.050;2022-08-06T13:27:33;98693.25;;;31.97;27.17
13235;BME280;6683;48.506;9.050;2022-08-06T13:30:37;98688.03;;;31.87;27.08
13235;BME280;6683;48.506;9.050;2022-08-06T13:33:41;98685.00;;;31.88;27.06
13235;BME280;6683;48.506;9.050;2022-08-06T13:36:52;98690.44;;;31.88;26.96
13235;BME280;6683;48.506;9.050;2022-08-06T13:39:55;98678.31;;;31.94;26.75
13235;BME280;6683;48.506;9.050;2022-08-06T13:42:57;98685.59;;;32.07;26.33
13235;BME280;6683;48.506;9.050;2022-08-06T13:46:07;98684.13;;;32.01;26.37
13235;BME280;6683;48.506;9.050;2022-08-06T13:49:12;98672.56;;;32.04;26.28
13235;BME280;6683;48.506;9.050;2022-08-06T13:52:15;98675.88;;;32.23;26.59
13235;BME280;6683;48.506;9.050;2022-08-06T13:55:22;98677.72;;;32.45;26.07
13235;BME280;6683;48.506;9.050;2022-08-06T13:58:26;98672.34;;;32.62;25.86
13235;BME280;6683;48.506;9.050;2022-08-06T14:01:30;98665.44;;;32.65;25.81
13235;BME280;6683;48.506;9.050;2022-08-06T14:04:34;98666.34;;;32.52;25.69
13235;BME280;6683;48.506;9.050;2022-08-06T14:07:36;98682.63;;;32.26;25.90
13235;BME280;6683;48.506;9.050;2022-08-06T14:10:40;98671.56;;;32.00;26.19
13235;BME280;6683;48.506;9.050;2022-08-06T14:13:42;98665.78;;;31.71;26.18
13235;BME280;6683;48.506;9.050;2022-08-06T14:16:45;98658.38;;;31.41;26.35
13235;BME280;6683;48.506;9.050;2022-08-06T14:19:49;98664.28;;;31.21;26.53
13235;BME280;6683;48.506;9.050;2022-08-06T14:22:52;98656.47;;;31.06;26.42
13235;BME280;6683;48.506;9.050;2022-08-06T14:25:54;98652.25;;;30.86;26.71
13235;BME280;6683;48.506;9.050;2022-08-06T14:28:57;98651.28;;;30.68;26.97
13235;BME280;6683;48.506;9.050;2022-08-06T14:32:02;98650.06;;;30.61;27.16
13235;BME280;6683;48.506;9.050;2022-08-06T14:35:08;98647.97;;;30.58;27.41
13235;BME280;6683;48.506;9.050;2022-08-06T14:38:10;98646.75;;;30.50;27.28
13235;BME280;6683;48.506;9.050;2022-08-06T14:41:13;98647.47;;;30.42;27.35
13235;BME280;6683;48.506;9.050;2022-08-06T14:44:33;98652.09;;;30.42;27.46
13235;BME280;6683;48.506;9.050;2022-08-06T14:47:53;98645.53;;;30.29;27.53
13235;BME280;6683;48.506;9.050;2022-08-06T14:50:57;98651.09;;;30.24;27.51
13235;BME280;6683;48.506;9.050;2022-08-06T14:53:59;98638.88;;;30.22;27.76
13235;BME280;6683;48.506;9.050;2022-08-06T14:57:03;98642.91;;;30.24;27.54
13235;BME280;6683;48.506;9.050;2022-08-06T15:00:09;98640.28;;;30.19;27.61
13235;BME280;6683;48.506;9.050;2022-08-06T15:03:11;98639.38;;;30.10;28.07
13235;BME280;6683;48.506;9.050;2022-08-06T15:06:16;98639.38;;;30.10;27.75
13235;BME280;6683;48.506;9.050;2022-08-06T15:09:18;98631.31;;;30.05;27.57
13235;BME280;6683;48.506;9.050;2022-08-06T15:12:20;98634.72;;;29.97;28.04
13235;BME280;6683;48.506;9.050;2022-08-06T15:15:23;98626.66;;;29.92;27.71
13235;BME280;6683;48.506;9.050;2022-08-06T15:18:25;98624.44;;;29.80;27.58
13235;BME280;6683;48.506;9.050;2022-08-06T15:21:29;98623.59;;;29.66;27.84
13235;BME280;6683;48.506;9.050;2022-08-06T15:24:32;98611.84;;;29.52;28.34
13235;BME280;6683;48.506;9.050;2022-08-06T15:27:35;98617.97;;;29.44;28.23
13235;BME280;6683;48.506;9.050;2022-08-06T15:30:38;98611.91;;;29.34;28.38
13235;BME280;6683;48.506;9.050;2022-08-06T15:33:41;98615.44;;;29.34;28.66
13235;BME280;6683;48.506;9.050;2022-08-06T15:36:44;98612.91;;;29.38;28.60
13235;BME280;6683;48.506;9.050;2022-08-06T15:39:47;98614.34;;;29.35;28.40
13235;BME280;6683;48.506;9.050;2022-08-06T15:42:50;98620.44;;;29.27;28.71
13235;BME280;6683;48.506;9.050;2022-08-06T15:45:53;98612.13;;;29.18;28.55
13235;BME280;6683;48.506;9.050;2022-08-06T15:49:00;98614.66;;;29.15;28.63
13235;BME280;6683;48.506;9.050;2022-08-06T15:52:04;98613.03;;;29.14;28.76
13235;BME280;6683;48.506;9.050;2022-08-06T15:55:08;98599.34;;;29.19;28.80
13235;BME280;6683;48.506;9.050;2022-08-06T15:58:10;98609.97;;;29.20;28.81
13235;BME280;6683;48.506;9.050;2022-08-06T16:01:13;98607.50;;;29.19;28.52
13235;BME280;6683;48.506;9.050;2022-08-06T16:04:15;98611.34;;;29.18;28.60
13235;BME280;6683;48.506;9.050;2022-08-06T16:07:19;98607.00;;;29.17;28.84
13235;BME280;6683;48.506;9.050;2022-08-06T16:10:22;98612.22;;;29.13;28.55
13235;BME280;6683;48.506;9.050;2022-08-06T16:13:25;98601.13;;;29.10;28.57
13235;BME280;6683;48.506;9.050;2022-08-06T16:16:28;98603.34;;;29.08;28.81
13235;BME280;6683;48.506;9.050;2022-08-06T16:19:32;98592.16;;;29.09;28.91
13235;BME280;6683;48.506;9.050;2022-08-06T16:22:36;98592.16;;;29.09;28.86
13235;BME280;6683;48.506;9.050;2022-08-06T16:25:41;98591.50;;;29.17;28.99
13235;BME280;6683;48.506;9.050;2022-08-06T16:28:43;98587.53;;;29.29;28.96
13235;BME280;6683;48.506;9.050;2022-08-06T16:31:46;98580.88;;;29.35;28.79
13235;BME280;6683;48.506;9.050;2022-08-06T16:34:50;98584.13;;;29.37;28.69
13235;BME280;6683;48.506;9.050;2022-08-06T16:37:57;98586.84;;;29.37;28.60
13235;BME280;6683;48.506;9.050;2022-08-06T16:41:00;98582.78;;;29.34;28.58
13235;BME280;6683;48.506;9.050;2022-08-06T16:44:03;98573.00;;;29.33;28.33